Huvudsida
METAR-TAF:

METAR-TAF

Flygplatser :

Dasht-e Naz Airport

Sari, Iran

latitud: 36-38-09N, longitud: 53-11-37E, höjd: 11 m

Aktuellt väderrapport

Denna rapport gjordes för 37 minuter sedan, klockan 19:00 UTC
Vind 2 kt från väst/sydväst
Temperatur 10°C
Fuktighet 93%
Tryck 1010 hPa
Sikt: 7000 m
Spridda moln på en höjd av 8000 ft
Spridda moln på en höjd av 17000 ft

METAR: OINZ 281900Z 25002KT 7000 SCT080 SCT170 10/09 Q1010

Tid: 23:07 (19:37 UTC)


TAF: saknas

Aktuella väderrapporter och prognoser från 4000 flygplatser (METAR- och TAF-rapporter).

De tillgängliga stationerna syns som gula och röda prickar på kartan.

För musen över prickarna för att se namnen på stationerna.

Klicka sedan för att få väderrapporter och prognoser.

För att ändra kartan: Klicka på de gröna knapparna med ett svart kors på för att zooma in; den gröna knappen med ett streck på för att zooma ut; eller på de gröna pilarna för angränsande kartor.


METAR-TAF: